Time;durP1;ratioP1;P1;durP2;ratioP2;P2;SDS_P1;SDS_P2;PMS_P1;PMS_P2;Temp;Humidity;BMP_temperature;BMP_pressure;BME280_temperature;BME280_humidity;BME280_pressure;Samples;Min_cycle;Max_cycle;Signal;HPM_P1;HPM_P2
2022/06/07 00:01:27;;;;;;;7.03;6.20;;;14.20;99.90;;;;;;5030909;28;20562;-52
2022/06/07 00:03:54;;;;;;;8.97;6.10;;;14.20;99.90;;;;;;5029106;28;20554;-51
2022/06/07 00:06:21;;;;;;;11.63;5.90;;;14.10;99.90;;;;;;5026202;28;20984;-51
2022/06/07 00:08:51;;;;;;;6.60;5.77;;;14.10;99.90;;;;;;5031898;28;21031;-52
2022/06/07 00:11:18;;;;;;;11.13;6.63;;;14.00;99.90;;;;;;5029438;28;20487;-52
2022/06/07 00:13:45;;;;;;;7.40;6.30;;;13.90;99.90;;;;;;5031644;28;20455;-52
2022/06/07 00:16:12;;;;;;;10.70;6.00;;;13.80;99.90;;;;;;5029986;28;20467;-52
2022/06/07 00:18:39;;;;;;;5.73;5.23;;;13.80;99.90;;;;;;5031965;28;21027;-52
2022/06/07 00:21:06;;;;;;;8.60;6.27;;;13.80;99.90;;;;;;5079680;22;20630;-49
2022/06/07 00:23:34;;;;;;;6.33;5.83;;;13.80;99.90;;;;;;5032684;28;20478;-49
2022/06/07 00:26:03;;;;;;;6.90;6.20;;;13.80;99.90;;;;;;5029505;28;20454;-49
2022/06/07 00:28:30;;;;;;;6.90;5.87;;;13.80;99.90;;;;;;5031592;28;20573;-50
2022/06/07 00:30:57;;;;;;;6.47;5.57;;;13.70;99.90;;;;;;5038654;28;20502;-49
2022/06/07 00:33:25;;;;;;;6.33;5.80;;;13.70;99.90;;;;;;5032618;28;20501;-50
2022/06/07 00:35:52;;;;;;;8.50;6.00;;;13.70;99.90;;;;;;5031112;28;20521;-49
2022/06/07 00:38:19;;;;;;;6.67;6.00;;;13.60;99.90;;;;;;5035141;28;20459;-50
2022/06/07 00:40:45;;;;;;;5.67;5.20;;;13.60;99.90;;;;;;5026043;28;20521;-50
2022/06/07 00:43:13;;;;;;;16.53;6.07;;;13.60;99.90;;;;;;5030756;28;20687;-51
2022/06/07 00:45:40;;;;;;;7.50;5.80;;;13.50;99.90;;;;;;5031317;28;20516;-50
2022/06/07 00:48:07;;;;;;;7.30;6.60;;;13.50;99.90;;;;;;5029477;28;20482;-50
2022/06/07 00:50:41;;;;;;;6.40;5.80;;;13.50;99.90;;;;;;5031497;28;20558;-50
2022/06/07 00:53:21;;;;;;;7.27;6.57;;;13.40;99.90;;;;;;5031127;28;20785;-49
2022/06/07 00:55:47;;;;;;;5.07;4.77;;;13.50;99.90;;;;;;5025961;28;20498;-49
2022/06/07 00:58:15;;;;;;;7.03;6.33;;;13.40;99.90;;;;;;5029860;28;21003;-49
2022/06/07 01:00:42;;;;;;;6.90;6.30;;;13.40;99.90;;;;;;5032647;28;20489;-49
2022/06/07 01:03:09;;;;;;;6.83;6.23;;;13.30;99.90;;;;;;5026120;28;20491;-49
2022/06/07 01:05:35;;;;;;;6.47;5.83;;;13.30;99.90;;;;;;5012362;28;20475;-49
2022/06/07 01:10:46;;;;;;;6.40;5.80;;;13.30;99.90;;;;;;5029573;28;21064;-49
2022/06/07 01:13:16;;;;;;;13.73;5.80;;;13.30;99.90;;;;;;5029137;28;20466;-50
2022/06/07 01:15:45;;;;;;;8.43;5.50;;;13.30;99.90;;;;;;5031245;28;20502;-49
2022/06/07 01:18:12;;;;;;;7.43;6.23;;;13.20;99.90;;;;;;5027566;28;20466;-49
2022/06/07 01:20:38;;;;;;;6.33;5.70;;;13.20;99.90;;;;;;5029756;28;20545;-49
2022/06/07 01:23:07;;;;;;;8.60;6.30;;;13.20;99.90;;;;;;5013296;28;20491;-49
2022/06/07 01:25:33;;;;;;;6.30;5.87;;;13.10;99.90;;;;;;5029771;28;20986;-49
2022/06/07 01:28:00;;;;;;;6.30;5.70;;;13.20;99.90;;;;;;5038423;28;20481;-49
2022/06/07 01:30:26;;;;;;;8.10;6.00;;;13.10;99.90;;;;;;5036072;28;20565;-49
2022/06/07 01:32:53;;;;;;;6.93;6.20;;;13.20;99.90;;;;;;5032931;28;20559;-49
2022/06/07 01:35:20;;;;;;;12.73;6.40;;;13.10;99.90;;;;;;5047005;28;20497;-49
2022/06/07 01:37:46;;;;;;;7.33;6.63;;;13.10;99.90;;;;;;5037269;28;20490;-49
2022/06/07 01:42:59;;;;;;;8.13;7.37;;;13.00;83.80;;;;;;5037191;28;20481;-49
2022/06/07 01:45:25;;;;;;;7.40;6.27;;;13.00;99.90;;;;;;5037750;28;20462;-49
2022/06/07 01:47:52;;;;;;;6.57;5.70;;;12.90;99.90;;;;;;5037421;28;20504;-49
2022/06/07 01:50:18;;;;;;;7.20;6.43;;;12.90;99.90;;;;;;5038142;28;20494;-49
2022/06/07 01:52:45;;;;;;;6.23;5.73;;;12.90;99.90;;;;;;5036751;28;20542;-49
2022/06/07 01:55:12;;;;;;;6.67;6.00;;;13.00;99.90;;;;;;5037392;28;20881;-49
2022/06/07 01:57:39;;;;;;;7.07;6.47;;;13.00;99.90;;;;;;5034886;28;20903;-50
2022/06/07 02:00:07;;;;;;;8.33;5.93;;;12.90;99.90;;;;;;5046127;28;20548;-49
2022/06/07 02:02:34;;;;;;;8.67;7.33;;;12.90;99.90;;;;;;5034054;28;20458;-49
2022/06/07 02:05:00;;;;;;;6.73;6.00;;;12.90;99.90;;;;;;5037932;28;20497;-50
2022/06/07 02:07:27;;;;;;;6.30;5.80;;;13.00;99.90;;;;;;5039093;28;21226;-49
2022/06/07 02:09:53;;;;;;;7.33;5.67;;;13.00;99.90;;;;;;5043966;28;20577;-49
2022/06/07 02:12:20;;;;;;;14.13;5.83;;;13.00;99.90;;;;;;5035686;28;20557;-49
2022/06/07 02:14:48;;;;;;;6.13;5.63;;;12.90;99.90;;;;;;5035008;28;20495;-49
2022/06/07 02:17:15;;;;;;;6.33;5.73;;;12.90;99.90;;;;;;5035578;28;20952;-50
2022/06/07 02:19:44;;;;;;;11.07;6.27;;;12.80;99.90;;;;;;5035724;28;20533;-49
2022/06/07 02:22:10;;;;;;;7.83;5.60;;;12.80;21.10;;;;;;5036625;28;20493;-49
2022/06/07 02:24:37;;;;;;;12.03;6.40;;;12.70;98.10;;;;;;5036784;28;20517;-49
2022/06/07 02:27:07;;;;;;;6.80;6.13;;;12.70;21.10;;;;;;5036253;28;21043;-49
2022/06/07 02:29:38;;;;;;;5.80;5.33;;;12.60;92.50;;;;;;5027533;28;20486;-50
2022/06/07 02:32:11;;;;;;;6.23;5.73;;;12.60;99.90;;;;;;5035338;28;20564;-48
2022/06/07 02:34:38;;;;;;;9.43;5.87;;;12.60;99.90;;;;;;5037362;28;20523;-50
2022/06/07 02:37:07;;;;;;;5.90;5.43;;;12.60;99.90;;;;;;5036693;28;20486;-49
2022/06/07 02:39:36;;;;;;;6.30;5.70;;;12.60;99.90;;;;;;5034379;28;20478;-49
2022/06/07 02:42:05;;;;;;;7.90;5.10;;;12.60;99.90;;;;;;5035471;28;20994;-49
2022/06/07 02:44:31;;;;;;;5.83;5.33;;;12.50;99.90;;;;;;5034523;28;20470;-49
2022/06/07 02:46:58;;;;;;;7.73;6.13;;;12.50;99.90;;;;;;5029436;28;20578;-49
2022/06/07 02:49:26;;;;;;;5.70;5.20;;;12.50;99.90;;;;;;5032481;28;20577;-50
2022/06/07 02:51:52;;;;;;;5.47;4.97;;;12.50;99.90;;;;;;5031791;28;21058;-49
2022/06/07 02:54:19;;;;;;;5.63;5.23;;;12.50;99.90;;;;;;5030028;28;20528;-49
2022/06/07 02:56:45;;;;;;;6.17;5.63;;;12.50;99.90;;;;;;5029799;28;20545;-49
2022/06/07 02:59:12;;;;;;;6.07;5.57;;;12.40;99.90;;;;;;5042534;28;21105;-49
2022/06/07 03:01:38;;;;;;;6.13;5.10;;;12.50;99.90;;;;;;5032200;28;21073;-50
2022/06/07 03:04:05;;;;;;;10.23;5.90;;;12.50;99.90;;;;;;5034212;28;20521;-49
2022/06/07 03:06:33;;;;;;;6.00;5.50;;;12.50;99.90;;;;;;5033484;28;20501;-49
2022/06/07 03:09:00;;;;;;;5.97;5.40;;;12.50;99.90;;;;;;5029932;28;20573;-49
2022/06/07 03:11:26;;;;;;;8.00;5.80;;;12.60;99.90;;;;;;5032321;28;20491;-49
2022/06/07 03:13:53;;;;;;;8.17;6.37;;;12.60;99.90;;;;;;5034116;28;20291;-50
2022/06/07 03:16:19;;;;;;;8.07;5.63;;;12.60;99.90;;;;;;5034058;28;20987;-52
2022/06/07 03:18:46;;;;;;;6.17;5.53;;;12.70;99.90;;;;;;5036647;28;21017;-49
2022/06/07 03:21:12;;;;;;;12.43;5.87;;;12.70;99.90;;;;;;5046207;28;20556;-49
2022/06/07 03:23:40;;;;;;;5.70;4.73;;;12.70;99.90;;;;;;5032716;28;21007;-50
2022/06/07 03:26:08;;;;;;;5.47;4.97;;;12.70;99.90;;;;;;5032848;28;20486;-49
2022/06/07 03:28:35;;;;;;;11.37;6.17;;;12.70;99.90;;;;;;5040302;28;20569;-49
2022/06/07 03:31:07;;;;;;;6.80;5.60;;;12.70;99.90;;;;;;5048831;28;20539;-49
2022/06/07 03:33:34;;;;;;;5.50;5.07;;;12.70;99.90;;;;;;5035042;28;20506;-49
2022/06/07 03:36:06;;;;;;;6.60;4.97;;;12.70;99.90;;;;;;5032220;28;20458;-49
2022/06/07 03:38:33;;;;;;;9.60;4.60;;;12.70;99.90;;;;;;5032237;28;21055;-49
2022/06/07 03:41:00;;;;;;;6.10;5.50;;;12.80;99.90;;;;;;5037821;28;20565;-49
2022/06/07 03:43:27;;;;;;;5.63;5.17;;;12.80;99.90;;;;;;5025431;28;20972;-50
2022/06/07 03:45:54;;;;;;;6.63;5.43;;;12.80;99.90;;;;;;5033680;28;20486;-50
2022/06/07 03:48:20;;;;;;;7.07;5.53;;;12.80;99.90;;;;;;5035166;28;20493;-49
2022/06/07 03:50:47;;;;;;;6.20;5.70;;;12.80;99.90;;;;;;5038733;28;20514;-49
2022/06/07 03:53:14;;;;;;;5.70;5.20;;;12.80;99.90;;;;;;5031892;28;20462;-49
2022/06/07 03:55:42;;;;;;;7.67;5.33;;;12.80;99.90;;;;;;5031899;28;20463;-49
2022/06/07 03:58:10;;;;;;;5.70;5.20;;;12.80;99.90;;;;;;5034132;28;20502;-49
2022/06/07 04:00:37;;;;;;;6.33;5.83;;;12.80;99.90;;;;;;5036191;28;20485;-49
2022/06/07 04:03:04;;;;;;;6.30;5.70;;;12.90;99.90;;;;;;5032485;28;20530;-49
2022/06/07 04:05:30;;;;;;;9.57;5.63;;;12.90;99.90;;;;;;5031985;28;20494;-49
2022/06/07 04:08:11;;;;;;;5.97;5.57;;;12.90;99.90;;;;;;5033660;28;20552;-49
2022/06/07 04:10:38;;;;;;;6.10;5.50;;;13.00;99.90;;;;;;5029724;28;20491;-49
2022/06/07 04:13:05;;;;;;;6.77;6.13;;;12.90;99.90;;;;;;5024908;28;20538;-49
2022/06/07 04:15:33;;;;;;;6.83;6.23;;;13.10;99.90;;;;;;5034682;28;20467;-50
2022/06/07 04:17:59;;;;;;;5.50;5.10;;;13.10;99.90;;;;;;5027714;28;20549;-49
2022/06/07 04:20:26;;;;;;;6.73;6.03;;;13.10;99.90;;;;;;5037313;28;20589;-50
2022/06/07 04:22:52;;;;;;;6.00;5.60;;;13.10;99.90;;;;;;5026268;28;20491;-50
2022/06/07 04:25:19;;;;;;;7.03;5.33;;;13.20;99.90;;;;;;5039974;28;20486;-49
2022/06/07 04:27:45;;;;;;;6.40;5.80;;;13.30;99.90;;;;;;5031082;28;20558;-49
2022/06/07 04:30:13;;;;;;;6.90;6.40;;;13.40;99.90;;;;;;5029464;28;20518;-49
2022/06/07 04:32:46;;;;;;;12.40;4.93;;;13.40;99.90;;;;;;5030469;28;20467;-50
2022/06/07 04:35:13;;;;;;;6.00;5.40;;;13.50;99.90;;;;;;5036496;28;20883;-50
2022/06/07 04:37:39;;;;;;;10.20;5.50;;;13.60;99.90;;;;;;5029179;28;20494;-50
2022/06/07 04:40:07;;;;;;;5.33;4.93;;;13.60;99.90;;;;;;5031044;28;22128;-50
2022/06/07 04:42:34;;;;;;;6.00;5.50;;;13.70;99.90;;;;;;5024226;28;20559;-54
2022/06/07 04:45:01;;;;;;;5.83;5.20;;;13.80;99.90;;;;;;5023449;28;20542;-54
2022/06/07 04:47:27;;;;;;;5.53;5.07;;;13.80;99.90;;;;;;5024248;28;20454;-53
2022/06/07 04:49:55;;;;;;;5.00;4.70;;;13.90;99.90;;;;;;5011701;28;20487;-53
2022/06/07 04:52:22;;;;;;;14.93;4.57;;;13.90;99.10;;;;;;5024626;28;20573;-53
2022/06/07 04:54:48;;;;;;;5.67;4.67;;;14.00;30.70;;;;;;5033996;28;20555;-54
2022/06/07 04:57:15;;;;;;;4.97;4.60;;;14.00;40.70;;;;;;5029950;28;20558;-53
2022/06/07 04:59:41;;;;;;;9.43;4.80;;;14.00;52.40;;;;;;5032957;28;20540;-54
2022/06/07 05:02:08;;;;;;;5.33;4.40;;;14.10;56.20;;;;;;5030844;28;20565;-54
2022/06/07 05:04:34;;;;;;;4.80;4.40;;;14.10;61.00;;;;;;5027442;28;20558;-54
2022/06/07 05:07:02;;;;;;;4.90;4.60;;;14.20;61.60;;;;;;5027458;28;20494;-54
2022/06/07 05:09:29;;;;;;;5.03;4.53;;;14.20;68.00;;;;;;5026304;28;20506;-52
2022/06/07 05:11:56;;;;;;;7.17;4.70;;;14.30;74.70;;;;;;5026401;28;20533;-54
2022/06/07 05:14:23;;;;;;;6.60;3.90;;;14.30;78.60;;;;;;5035455;28;20458;-53
2022/06/07 05:16:51;;;;;;;6.20;5.00;;;14.40;82.30;;;;;;5034556;28;20458;-54
2022/06/07 05:19:19;;;;;;;13.60;4.37;;;14.40;87.80;;;;;;5031934;28;20999;-54
2022/06/07 05:21:46;;;;;;;4.60;4.30;;;14.50;95.50;;;;;;5033155;28;20538;-54
2022/06/07 05:24:14;;;;;;;3.93;3.63;;;14.60;99.90;;;;;;5033429;28;21583;-53
2022/06/07 05:26:44;;;;;;;5.23;4.83;;;14.60;99.90;;;;;;5026723;28;20956;-55
2022/06/07 05:29:18;;;;;;;6.03;3.60;;;14.70;99.90;;;;;;5032793;28;20522;-55
2022/06/07 05:31:44;;;;;;;4.93;4.07;;;14.80;99.90;;;;;;5028289;28;20483;-55
2022/06/07 05:34:11;;;;;;;4.33;3.67;;;14.80;99.90;;;;;;5027675;28;20554;-55
2022/06/07 05:36:38;;;;;;;3.70;3.50;;;14.90;99.90;;;;;;5033659;28;20494;-55
2022/06/07 05:39:04;;;;;;;7.10;3.60;;;14.90;99.90;;;;;;5024297;28;21000;-55
2022/06/07 05:41:33;;;;;;;4.43;3.67;;;15.00;99.90;;;;;;5036835;28;20569;-55
2022/06/07 05:44:01;;;;;;;8.93;2.77;;;15.10;99.90;;;;;;5026843;28;20558;-55
2022/06/07 05:46:27;;;;;;;3.57;3.10;;;15.10;99.90;;;;;;5029688;28;20485;-56
2022/06/07 05:48:54;;;;;;;4.00;3.17;;;15.20;99.90;;;;;;5033924;28;20493;-55
2022/06/07 05:51:21;;;;;;;12.77;2.73;;;15.20;87.70;;;;;;5023766;28;20556;-55
2022/06/07 05:53:47;;;;;;;4.80;3.20;;;15.30;78.70;;;;;;5032613;28;20454;-55
2022/06/07 05:56:16;;;;;;;6.90;2.70;;;15.30;27.00;;;;;;5029641;28;20501;-50
2022/06/07 05:58:44;;;;;;;3.90;2.70;;;15.40;26.40;;;;;;5029839;28;20463;-49
2022/06/07 06:01:10;;;;;;;5.90;2.80;;;15.50;44.00;;;;;;5027515;28;20898;-49
2022/06/07 06:03:40;;;;;;;3.30;2.67;;;15.50;42.80;;;;;;5024209;28;20808;-53
2022/06/07 06:06:08;;;;;;;13.27;2.80;;;15.60;44.10;;;;;;5035517;28;20466;-54
2022/06/07 06:11:20;;;;;;;4.80;2.50;;;15.70;51.40;;;;;;5030631;28;20494;-55
2022/06/07 06:13:49;;;;;;;11.93;2.80;;;15.80;72.60;;;;;;5038386;28;21019;-52
2022/06/07 06:16:18;;;;;;;8.03;2.20;;;15.90;83.10;;;;;;5023767;28;20881;-54
2022/06/07 06:18:45;;;;;;;5.20;2.30;;;16.00;98.50;;;;;;5029852;28;20458;-54
2022/06/07 06:21:12;;;;;;;2.50;2.23;;;16.10;99.90;;;;;;5031372;28;21012;-52
2022/06/07 06:23:39;;;;;;;6.43;2.10;;;16.20;99.90;;;;;;5041614;28;20512;-53
2022/06/07 06:26:08;;;;;;;3.23;2.40;;;16.30;99.90;;;;;;5038345;28;20490;-50
2022/06/07 06:28:34;;;;;;;2.50;2.40;;;16.30;99.90;;;;;;5027557;28;20816;-49
2022/06/07 06:31:05;;;;;;;2.40;2.30;;;16.40;99.90;;;;;;5029144;28;20564;-50
2022/06/07 06:33:32;;;;;;;1.90;1.80;;;16.50;99.90;;;;;;5032220;28;20477;-49
2022/06/07 06:35:59;;;;;;;6.10;2.50;;;16.60;99.90;;;;;;5029634;28;20559;-49
2022/06/07 06:38:25;;;;;;;2.30;2.07;;;16.70;99.90;;;;;;5028937;28;20486;-50
2022/06/07 06:40:52;;;;;;;7.17;2.10;;;16.80;99.90;;;;;;5036343;28;20581;-55
2022/06/07 06:43:20;;;;;;;6.07;2.77;;;16.80;99.90;;;;;;5036947;28;20497;-55
2022/06/07 06:45:46;;;;;;;3.70;2.17;;;16.80;99.90;;;;;;5034536;28;20494;-54
2022/06/07 06:48:16;;;;;;;1.70;1.53;;;16.80;99.90;;;;;;5027258;28;20979;-55
2022/06/07 06:50:43;;;;;;;2.40;2.00;;;16.80;99.90;;;;;;5030213;28;20585;-54
2022/06/07 06:53:10;;;;;;;6.20;1.97;;;16.80;99.90;;;;;;5038364;28;20491;-54
2022/06/07 06:55:36;;;;;;;10.33;1.90;;;16.90;99.90;;;;;;5029349;28;20514;-54
2022/06/07 06:58:03;;;;;;;7.47;2.07;;;16.90;99.90;;;;;;5032141;28;20485;-55
2022/06/07 07:00:29;;;;;;;16.90;1.90;;;17.00;99.90;;;;;;5038265;28;20525;-55
2022/06/07 07:02:56;;;;;;;5.70;2.63;;;17.10;99.90;;;;;;5037097;28;20524;-54
2022/06/07 07:05:24;;;;;;;3.70;2.10;;;17.10;99.90;;;;;;5031602;28;20458;-55
2022/06/07 07:07:50;;;;;;;2.60;2.10;;;17.20;99.90;;;;;;5036394;28;20466;-54
2022/06/07 07:10:17;;;;;;;4.43;2.07;;;17.30;89.40;;;;;;5029580;28;20475;-54
2022/06/07 07:12:43;;;;;;;1.83;1.73;;;17.30;26.20;;;;;;5028761;28;20550;-55
2022/06/07 07:15:13;;;;;;;1.90;1.80;;;17.40;24.60;;;;;;5038283;28;20542;-54
2022/06/07 07:17:39;;;;;;;1.97;1.77;;;17.40;82.80;;;;;;5033769;28;20838;-54
2022/06/07 07:20:07;;;;;;;3.90;2.50;;;17.50;99.90;;;;;;5028269;28;20459;-54
2022/06/07 07:22:36;;;;;;;3.83;2.63;;;17.50;25.70;;;;;;5035054;28;20911;-54
2022/06/07 07:25:05;;;;;;;6.73;1.80;;;17.70;25.00;;;;;;5028769;28;20467;-55
2022/06/07 07:27:31;;;;;;;5.73;1.80;;;17.70;20.30;;;;;;5029539;28;20542;-55
2022/06/07 07:29:58;;;;;;;3.63;2.10;;;17.80;81.20;;;;;;5028582;28;20984;-55
2022/06/07 07:32:26;;;;;;;1.50;1.50;;;17.90;46.90;;;;;;5042467;28;20509;-55
2022/06/07 07:34:52;;;;;;;2.63;2.43;;;18.00;64.10;;;;;;5025975;28;20463;-55
2022/06/07 07:37:19;;;;;;;6.60;2.07;;;18.00;54.20;;;;;;5038438;28;20490;-55
2022/06/07 07:39:48;;;;;;;4.80;2.10;;;18.00;52.40;;;;;;5038619;28;20458;-55
2022/06/07 07:42:15;;;;;;;2.70;1.60;;;18.00;50.80;;;;;;5031965;28;21000;-54
2022/06/07 07:44:41;;;;;;;2.30;1.70;;;18.10;53.30;;;;;;5034764;28;20538;-56
2022/06/07 07:47:08;;;;;;;3.07;1.70;;;18.20;49.00;;;;;;5024351;28;20546;-55
2022/06/07 07:49:34;;;;;;;10.83;1.97;;;18.30;48.90;;;;;;5036437;28;20523;-55
2022/06/07 07:52:01;;;;;;;2.50;2.30;;;18.30;78.00;;;;;;5033027;28;20510;-54
2022/06/07 07:54:28;;;;;;;1.67;1.57;;;18.40;81.70;;;;;;5035089;28;20463;-54
2022/06/07 07:56:56;;;;;;;8.00;1.27;;;18.50;87.40;;;;;;5029017;28;20569;-54
2022/06/07 07:59:24;;;;;;;1.83;1.60;;;18.60;99.90;;;;;;5027970;28;20947;-54
2022/06/07 08:01:51;;;;;;;2.43;1.67;;;18.60;99.90;;;;;;5031065;28;20479;-55
2022/06/07 08:04:18;;;;;;;3.33;1.50;;;18.70;94.50;;;;;;5026567;28;21188;-55
2022/06/07 08:06:44;;;;;;;2.77;1.90;;;18.80;99.90;;;;;;5029858;28;20545;-54
2022/06/07 08:09:12;;;;;;;3.60;1.90;;;18.80;99.90;;;;;;5048360;28;20470;-54
2022/06/07 08:11:40;;;;;;;1.97;1.63;;;18.90;99.70;;;;;;5029190;28;20576;-54
2022/06/07 08:14:10;;;;;;;2.53;1.73;;;19.00;99.90;;;;;;5026760;28;20455;-54
2022/06/07 08:16:37;;;;;;;4.90;1.90;;;19.10;99.90;;;;;;5023060;28;20542;-54
2022/06/07 08:19:04;;;;;;;3.37;2.00;;;19.30;99.90;;;;;;5025334;28;20465;-55
2022/06/07 08:21:31;;;;;;;4.87;2.20;;;19.40;99.90;;;;;;5032519;28;20490;-54
2022/06/07 08:23:58;;;;;;;4.23;2.33;;;19.40;99.90;;;;;;5033255;28;20517;-55
2022/06/07 08:26:27;;;;;;;10.73;2.37;;;19.50;99.90;;;;;;5033363;28;20634;-54
2022/06/07 08:28:54;;;;;;;3.87;1.90;;;19.50;99.90;;;;;;5028386;28;20469;-54
2022/06/07 08:31:25;;;;;;;4.40;2.43;;;19.50;99.90;;;;;;5028167;28;20566;-55
2022/06/07 08:39:22;;;;;;;4.00;1.30;;;19.40;99.90;;;;;;5026569;28;20488;-54
2022/06/07 08:41:52;;;;;;;1.80;1.30;;;19.30;99.90;;;;;;5020650;28;20888;-54
2022/06/07 08:44:23;;;;;;;2.50;1.47;;;19.30;99.90;;;;;;5026838;28;20542;-55
2022/06/07 08:46:55;;;;;;;4.63;1.40;;;19.40;99.90;;;;;;5030556;28;20552;-55
2022/06/07 08:49:23;;;;;;;4.87;1.53;;;19.50;99.90;;;;;;5031083;28;20486;-55
2022/06/07 08:51:51;;;;;;;3.47;1.33;;;19.80;99.90;;;;;;5028739;28;20571;-55
2022/06/07 08:54:23;;;;;;;2.40;1.57;;;20.00;99.90;;;;;;5035869;28;21056;-55
2022/06/07 08:56:52;;;;;;;4.50;1.40;;;20.10;99.90;;;;;;5022630;28;20459;-54
2022/06/07 08:59:21;;;;;;;3.50;1.80;;;20.30;99.90;;;;;;5030915;28;20599;-55
2022/06/07 09:01:56;;;;;;;1.73;1.20;;;20.40;99.90;;;;;;5033002;28;20486;-55
2022/06/07 09:04:26;;;;;;;7.20;1.83;;;20.60;99.90;;;;;;5031966;28;20490;-55
2022/06/07 09:06:56;;;;;;;1.30;1.20;;;20.70;99.90;;;;;;5027500;28;20463;-56
2022/06/07 09:12:09;;;;;;;6.70;1.60;;;20.70;99.90;;;;;;5026477;28;20451;-53
2022/06/07 09:12:16;;;;;;;4.90;1.40;;;20.70;99.90;;;;;;5025849;28;20478;-55
2022/06/07 09:14:47;;;;;;;4.87;1.53;;;20.80;99.90;;;;;;5034750;28;20825;-54
2022/06/07 09:17:18;;;;;;;3.63;1.40;;;20.90;99.90;;;;;;5027789;28;20462;-55
2022/06/07 09:19:46;;;;;;;3.33;1.70;;;21.00;99.90;;;;;;5029187;28;20505;-55
2022/06/07 09:22:17;;;;;;;4.13;1.43;;;21.10;99.90;;;;;;5026128;28;20574;-54
2022/06/07 09:24:56;;;;;;;4.73;1.77;;;21.30;99.90;;;;;;5025750;28;20870;-55
2022/06/07 09:27:26;;;;;;;4.63;1.43;;;21.30;99.90;;;;;;5025340;28;20494;-54
2022/06/07 09:29:55;;;;;;;2.73;1.20;;;21.30;99.90;;;;;;5028190;28;20534;-54
2022/06/07 09:32:26;;;;;;;5.37;1.50;;;21.40;99.90;;;;;;5034534;28;20510;-55
2022/06/07 09:34:56;;;;;;;1.70;1.60;;;21.40;99.90;;;;;;5027795;28;20512;-54
2022/06/07 09:37:29;;;;;;;3.83;1.67;;;21.30;99.90;;;;;;5035109;28;20453;-55
2022/06/07 09:40:01;;;;;;;4.10;1.33;;;21.20;99.90;;;;;;5029933;28;20459;-54
2022/06/07 09:42:30;;;;;;;3.87;1.20;;;21.20;99.90;;;;;;5028583;28;20888;-55
2022/06/07 09:45:01;;;;;;;4.30;1.40;;;21.30;99.90;;;;;;5020905;28;20479;-55
2022/06/07 09:47:31;;;;;;;2.77;1.40;;;21.30;99.90;;;;;;5026282;28;20474;-54
2022/06/07 09:49:59;;;;;;;4.73;1.20;;;21.10;99.90;;;;;;5026340;28;20841;-55
2022/06/07 09:52:28;;;;;;;12.33;1.50;;;21.20;99.90;;;;;;5027755;28;20482;-55
2022/06/07 09:54:58;;;;;;;2.70;1.30;;;21.10;99.90;;;;;;5030673;28;20517;-55
2022/06/07 09:57:34;;;;;;;2.47;1.30;;;21.00;99.90;;;;;;5035092;28;21203;-54
2022/06/07 10:00:17;;;;;;;4.17;1.40;;;21.00;99.90;;;;;;5030991;28;20536;-54
2022/06/07 10:03:23;;;;;;;2.93;1.43;;;21.00;99.90;;;;;;5026898;28;20549;-55
2022/06/07 10:06:01;;;;;;;1.97;1.50;;;21.00;99.90;;;;;;5029601;28;20534;-54
2022/06/07 10:08:39;;;;;;;2.80;1.47;;;20.90;99.90;;;;;;5036895;28;20550;-55
2022/06/07 10:11:11;;;;;;;3.30;0.97;;;21.00;99.90;;;;;;5033806;28;20588;-54
2022/06/07 10:14:10;;;;;;;1.93;1.17;;;21.20;99.90;;;;;;5030218;28;21020;-55
2022/06/07 10:16:44;;;;;;;1.80;1.27;;;21.40;1.40;;;;;;5026797;28;20554;-54
2022/06/07 10:19:28;;;;;;;1.27;1.17;;;21.60;99.90;;;;;;5032674;28;20568;-55
2022/06/07 10:22:52;;;;;;;2.50;1.20;;;21.70;99.90;;;;;;5032112;28;21053;-55
2022/06/07 10:25:25;;;;;;;25.47;1.50;;;21.60;99.90;;;;;;4941413;28;20457;-55
2022/06/07 10:28:00;;;;;;;4.20;1.20;;;21.60;99.90;;;;;;5015925;28;20549;-55
2022/06/07 10:30:31;;;;;;;1.70;1.17;;;21.70;99.90;;;;;;5032502;28;20577;-55
2022/06/07 10:33:24;;;;;;;3.27;1.60;;;21.80;99.90;;;;;;5030039;28;20555;-54
2022/06/07 10:36:00;;;;;;;1.10;0.93;;;21.80;1.40;;;;;;5028210;28;20557;-54
2022/06/07 10:38:45;;;;;;;4.87;1.27;;;21.80;99.90;;;;;;5030335;28;20542;-54
2022/06/07 10:41:22;;;;;;;3.50;1.40;;;21.60;99.90;;;;;;5030028;28;20549;-55
2022/06/07 10:44:03;;;;;;;1.07;1.07;;;21.50;99.90;;;;;;5037134;28;20548;-54
2022/06/07 10:46:30;;;;;;;2.40;1.10;;;21.40;99.90;;;;;;5030466;28;20521;-54
2022/06/07 10:49:10;;;;;;;1.20;1.10;;;21.40;99.90;;;;;;5029228;28;20486;-54
2022/06/07 10:54:40;;;;;;;2.30;1.27;;;22.00;99.90;;;;;;5033904;28;20438;-55
2022/06/07 10:57:12;;;;;;;1.80;1.20;;;22.30;99.90;;;;;;5024636;28;20922;-50
2022/06/07 10:59:42;;;;;;;3.60;1.00;;;22.50;99.90;;;;;;5028797;28;20455;-50
2022/06/07 11:02:31;;;;;;;1.73;1.00;;;22.50;99.90;;;;;;5029387;28;20565;-50
2022/06/07 11:10:39;;;;;;;1.00;0.90;;;22.00;99.90;;;;;;5029733;28;20497;-51
2022/06/07 11:13:19;;;;;;;1.10;1.10;;;21.90;99.90;;;;;;5028475;28;21132;-50
2022/06/07 11:15:53;;;;;;;10.57;1.13;;;21.80;99.90;;;;;;5029988;28;20592;-50
2022/06/07 11:18:22;;;;;;;3.13;0.93;;;21.70;99.90;;;;;;5029811;28;20509;-51
2022/06/07 11:20:51;;;;;;;1.17;1.00;;;21.60;99.90;;;;;;5024032;28;20495;-50
2022/06/07 11:23:29;;;;;;;4.00;1.20;;;21.60;99.90;;;;;;5031553;28;20546;-50
2022/06/07 11:26:02;;;;;;;1.47;0.90;;;21.50;99.90;;;;;;5030719;28;20465;-50
2022/06/07 11:28:33;;;;;;;1.33;1.10;;;21.50;99.90;;;;;;5030583;28;20976;-50
2022/06/07 11:31:03;;;;;;;7.93;0.63;;;21.50;99.90;;;;;;5025495;28;20483;-50
2022/06/07 11:33:41;;;;;;;2.73;0.90;;;21.50;99.90;;;;;;5033762;28;21035;-49
2022/06/07 11:36:32;;;;;;;4.37;0.83;;;21.50;99.90;;;;;;5033983;28;20458;-49
2022/06/07 11:39:04;;;;;;;3.90;1.03;;;21.50;99.90;;;;;;5030655;28;20560;-50
2022/06/07 11:41:44;;;;;;;2.20;0.90;;;21.50;99.90;;;;;;5029466;28;20485;-49
2022/06/07 11:44:32;;;;;;;1.77;0.60;;;21.50;99.90;;;;;;5032685;28;20827;-50
2022/06/07 11:47:02;;;;;;;8.53;1.00;;;21.60;99.90;;;;;;5027145;28;20455;-50
2022/06/07 11:49:56;;;;;;;0.90;0.50;;;21.80;99.90;;;;;;5031764;28;20554;-50
2022/06/07 11:52:26;;;;;;;1.00;0.90;;;22.10;99.90;;;;;;5029116;28;20497;-50
2022/06/07 11:54:56;;;;;;;0.90;0.67;;;22.60;99.90;;;;;;5027696;28;20553;-50
2022/06/07 11:57:32;;;;;;;2.17;0.80;;;22.70;99.90;;;;;;5036195;28;20509;-50
2022/06/07 12:00:21;;;;;;;3.57;1.10;;;22.80;99.90;;;;;;5030229;28;20485;-50
2022/06/07 12:03:12;;;;;;;2.30;0.80;;;22.80;99.90;;;;;;5031179;28;20460;-50
2022/06/07 12:05:41;;;;;;;1.87;0.87;;;22.80;99.90;;;;;;5025125;28;20468;-50
2022/06/07 12:08:15;;;;;;;4.73;0.70;;;22.80;99.90;;;;;;5031142;28;20463;-50
2022/06/07 12:11:02;;;;;;;12.37;0.83;;;23.00;99.90;;;;;;5029269;28;20569;-50
2022/06/07 12:13:52;;;;;;;2.60;0.80;;;23.30;99.90;;;;;;5024942;28;21028;-50
2022/06/07 12:16:27;;;;;;;8.13;1.00;;;23.50;99.90;;;;;;5027147;28;20462;-50
2022/06/07 12:18:55;;;;;;;3.70;0.70;;;23.80;99.90;;;;;;5028052;28;20463;-51
2022/06/07 12:21:22;;;;;;;2.67;0.90;;;23.90;99.90;;;;;;5032883;28;20867;-50
2022/06/07 12:23:52;;;;;;;4.60;0.70;;;24.10;99.90;;;;;;5033181;28;20495;-49
2022/06/07 12:26:25;;;;;;;0.77;0.50;;;24.00;99.90;;;;;;5034965;28;20554;-50
2022/06/07 12:28:56;;;;;;;3.97;1.10;;;23.80;99.90;;;;;;5028862;28;20554;-50
2022/06/07 12:31:26;;;;;;;0.90;0.67;;;23.60;99.90;;;;;;5027108;28;20493;-50
2022/06/07 12:33:54;;;;;;;3.63;0.77;;;23.60;99.90;;;;;;5038371;28;20545;-50
2022/06/07 12:36:23;;;;;;;3.43;0.67;;;23.50;99.90;;;;;;5032984;28;20497;-49
2022/06/07 12:38:51;;;;;;;0.90;0.80;;;23.50;99.90;;;;;;5037365;28;20538;-50
2022/06/07 12:41:22;;;;;;;1.27;0.67;;;23.40;99.90;;;;;;5024260;28;20478;-50
2022/06/07 12:43:51;;;;;;;2.80;0.80;;;23.40;99.90;;;;;;5026387;28;20553;-50
2022/06/07 12:46:21;;;;;;;3.90;1.10;;;23.50;99.90;;;;;;5032146;28;20487;-51
2022/06/07 12:48:48;;;;;;;1.80;0.67;;;23.50;99.90;;;;;;5029443;28;20896;-50
2022/06/07 12:51:22;;;;;;;1.23;1.00;;;23.60;99.90;;;;;;5029664;28;20601;-50
2022/06/07 12:53:57;;;;;;;5.73;0.80;;;23.40;99.90;;;;;;5031293;28;20482;-50
2022/06/07 12:56:28;;;;;;;9.93;1.23;;;23.10;99.90;;;;;;5035501;28;20577;-50
2022/06/07 12:58:57;;;;;;;7.67;0.73;;;23.00;99.90;;;;;;5029831;28;20461;-50
2022/06/07 13:01:26;;;;;;;0.70;0.60;;;23.00;99.90;;;;;;5025733;28;20487;-49
2022/06/07 13:03:57;;;;;;;1.67;0.93;;;23.00;99.90;;;;;;5031566;28;22594;-50
2022/06/07 13:06:24;;;;;;;5.70;0.67;;;23.10;99.90;;;;;;5030443;28;20906;-49
2022/06/07 13:09:01;;;;;;;1.10;0.87;;;23.10;99.90;;;;;;5028654;28;20495;-49
2022/06/07 13:11:31;;;;;;;4.10;1.00;;;23.10;99.90;;;;;;5025777;28;20592;-50
2022/06/07 13:14:00;;;;;;;2.63;1.10;;;23.00;99.90;;;;;;5028713;28;20475;-50
2022/06/07 13:16:37;;;;;;;2.30;0.80;;;22.80;99.90;;;;;;5039012;28;20497;-49
2022/06/07 13:19:18;;;;;;;11.00;0.97;;;22.80;99.90;;;;;;5036113;28;20553;-50
2022/06/07 13:21:52;;;;;;;1.37;0.80;;;22.70;99.90;;;;;;5031933;28;20509;-50